sensor_id;sensor_type;location;lat;lon;timestamp;P1;durP1;ratioP1;P2;durP2;ratioP2
3257;SDS011;1641;51.306;12.384;2022-10-15T00:00:53;18.45;;;12.30;;
3257;SDS011;1641;51.306;12.384;2022-10-15T00:03:39;14.50;;;11.77;;
3257;SDS011;1641;51.306;12.384;2022-10-15T00:06:06;13.88;;;10.70;;
3257;SDS011;1641;51.306;12.384;2022-10-15T00:08:33;13.93;;;11.88;;
3257;SDS011;1641;51.306;12.384;2022-10-15T00:11:18;14.80;;;10.98;;
3257;SDS011;1641;51.306;12.384;2022-10-15T00:13:45;15.07;;;11.02;;
3257;SDS011;1641;51.306;12.384;2022-10-15T00:16:12;16.55;;;10.85;;
3257;SDS011;1641;51.306;12.384;2022-10-15T00:18:40;15.80;;;11.65;;
3257;SDS011;1641;51.306;12.384;2022-10-15T00:21:06;14.93;;;10.38;;
3257;SDS011;1641;51.306;12.384;2022-10-15T00:23:34;14.35;;;9.48;;
3257;SDS011;1641;51.306;12.384;2022-10-15T00:26:03;15.32;;;9.60;;
3257;SDS011;1641;51.306;12.384;2022-10-15T00:28:36;14.90;;;10.10;;
3257;SDS011;1641;51.306;12.384;2022-10-15T00:31:06;11.43;;;8.98;;
3257;SDS011;1641;51.306;12.384;2022-10-15T00:33:33;13.52;;;10.00;;
3257;SDS011;1641;51.306;12.384;2022-10-15T00:36:04;10.88;;;9.23;;
3257;SDS011;1641;51.306;12.384;2022-10-15T00:40:59;10.50;;;8.45;;
3257;SDS011;1641;51.306;12.384;2022-10-15T00:45:59;11.13;;;8.27;;
3257;SDS011;1641;51.306;12.384;2022-10-15T00:48:25;10.23;;;8.35;;
3257;SDS011;1641;51.306;12.384;2022-10-15T00:50:51;13.57;;;8.38;;
3257;SDS011;1641;51.306;12.384;2022-10-15T00:53:17;9.30;;;8.18;;
3257;SDS011;1641;51.306;12.384;2022-10-15T00:55:42;8.85;;;7.55;;
3257;SDS011;1641;51.306;12.384;2022-10-15T00:58:12;9.55;;;7.57;;
3257;SDS011;1641;51.306;12.384;2022-10-15T01:00:40;11.00;;;8.10;;
3257;SDS011;1641;51.306;12.384;2022-10-15T01:03:06;9.45;;;6.88;;
3257;SDS011;1641;51.306;12.384;2022-10-15T01:05:32;9.73;;;7.25;;
3257;SDS011;1641;51.306;12.384;2022-10-15T01:08:02;12.40;;;9.13;;
3257;SDS011;1641;51.306;12.384;2022-10-15T01:10:31;9.63;;;7.72;;
3257;SDS011;1641;51.306;12.384;2022-10-15T01:13:11;9.95;;;7.28;;
3257;SDS011;1641;51.306;12.384;2022-10-15T01:18:31;9.60;;;7.03;;
3257;SDS011;1641;51.306;12.384;2022-10-15T01:21:06;9.15;;;7.72;;
3257;SDS011;1641;51.306;12.384;2022-10-15T01:32:35;9.48;;;7.50;;
3257;SDS011;1641;51.306;12.384;2022-10-15T01:35:32;9.23;;;7.63;;
3257;SDS011;1641;51.306;12.384;2022-10-15T01:38:12;8.68;;;7.55;;
3257;SDS011;1641;51.306;12.384;2022-10-15T01:43:55;8.73;;;7.57;;
3257;SDS011;1641;51.306;12.384;2022-10-15T01:46:30;10.43;;;8.27;;
3257;SDS011;1641;51.306;12.384;2022-10-15T01:49:00;9.07;;;7.55;;
3257;SDS011;1641;51.306;12.384;2022-10-15T01:51:32;10.02;;;8.38;;
3257;SDS011;1641;51.306;12.384;2022-10-15T01:54:00;11.00;;;8.52;;
3257;SDS011;1641;51.306;12.384;2022-10-15T01:56:27;9.05;;;7.75;;
3257;SDS011;1641;51.306;12.384;2022-10-15T01:58:54;10.23;;;8.38;;
3257;SDS011;1641;51.306;12.384;2022-10-15T02:01:21;9.65;;;8.52;;
3257;SDS011;1641;51.306;12.384;2022-10-15T02:03:47;12.40;;;8.40;;
3257;SDS011;1641;51.306;12.384;2022-10-15T02:11:39;9.30;;;8.23;;
3257;SDS011;1641;51.306;12.384;2022-10-15T02:14:19;8.10;;;7.25;;
3257;SDS011;1641;51.306;12.384;2022-10-15T02:17:02;8.52;;;7.30;;
3257;SDS011;1641;51.306;12.384;2022-10-15T02:19:42;9.15;;;7.65;;
3257;SDS011;1641;51.306;12.384;2022-10-15T02:24:52;8.10;;;7.15;;
3257;SDS011;1641;51.306;12.384;2022-10-15T02:27:22;10.43;;;6.83;;
3257;SDS011;1641;51.306;12.384;2022-10-15T02:29:50;9.77;;;7.70;;
3257;SDS011;1641;51.306;12.384;2022-10-15T02:32:18;9.75;;;8.15;;
3257;SDS011;1641;51.306;12.384;2022-10-15T02:34:45;7.95;;;7.15;;
3257;SDS011;1641;51.306;12.384;2022-10-15T02:37:11;11.57;;;7.63;;
3257;SDS011;1641;51.306;12.384;2022-10-15T02:39:37;7.65;;;6.68;;
3257;SDS011;1641;51.306;12.384;2022-10-15T02:42:02;13.65;;;7.28;;
3257;SDS011;1641;51.306;12.384;2022-10-15T02:44:28;8.05;;;7.03;;
3257;SDS011;1641;51.306;12.384;2022-10-15T02:46:53;8.93;;;7.28;;
3257;SDS011;1641;51.306;12.384;2022-10-15T02:49:20;7.68;;;6.85;;
3257;SDS011;1641;51.306;12.384;2022-10-15T02:51:45;9.13;;;7.00;;
3257;SDS011;1641;51.306;12.384;2022-10-15T02:54:10;9.90;;;7.10;;
3257;SDS011;1641;51.306;12.384;2022-10-15T02:56:36;10.27;;;7.40;;
3257;SDS011;1641;51.306;12.384;2022-10-15T02:59:03;8.00;;;6.50;;
3257;SDS011;1641;51.306;12.384;2022-10-15T03:01:29;9.85;;;6.13;;
3257;SDS011;1641;51.306;12.384;2022-10-15T03:03:55;6.85;;;5.97;;
3257;SDS011;1641;51.306;12.384;2022-10-15T03:06:29;7.07;;;5.95;;
3257;SDS011;1641;51.306;12.384;2022-10-15T03:08:54;7.82;;;6.05;;
3257;SDS011;1641;51.306;12.384;2022-10-15T03:11:20;6.45;;;5.85;;
3257;SDS011;1641;51.306;12.384;2022-10-15T03:13:45;8.70;;;6.43;;
3257;SDS011;1641;51.306;12.384;2022-10-15T03:16:10;7.68;;;6.00;;
3257;SDS011;1641;51.306;12.384;2022-10-15T03:18:39;9.05;;;6.57;;
3257;SDS011;1641;51.306;12.384;2022-10-15T03:21:04;6.72;;;6.03;;
3257;SDS011;1641;51.306;12.384;2022-10-15T03:23:30;8.45;;;6.68;;
3257;SDS011;1641;51.306;12.384;2022-10-15T03:25:55;5.85;;;5.30;;
3257;SDS011;1641;51.306;12.384;2022-10-15T03:28:21;6.03;;;5.43;;
3257;SDS011;1641;51.306;12.384;2022-10-15T03:30:47;9.88;;;5.18;;
3257;SDS011;1641;51.306;12.384;2022-10-15T03:33:12;7.68;;;5.38;;
3257;SDS011;1641;51.306;12.384;2022-10-15T03:35:37;7.13;;;5.07;;
3257;SDS011;1641;51.306;12.384;2022-10-15T03:38:03;13.57;;;5.45;;
3257;SDS011;1641;51.306;12.384;2022-10-15T03:40:29;9.65;;;4.85;;
3257;SDS011;1641;51.306;12.384;2022-10-15T03:42:55;6.25;;;4.50;;
3257;SDS011;1641;51.306;12.384;2022-10-15T03:45:23;4.50;;;4.10;;
3257;SDS011;1641;51.306;12.384;2022-10-15T03:47:49;5.40;;;3.85;;
3257;SDS011;1641;51.306;12.384;2022-10-15T03:50:14;6.20;;;4.00;;
3257;SDS011;1641;51.306;12.384;2022-10-15T03:52:40;5.00;;;3.95;;
3257;SDS011;1641;51.306;12.384;2022-10-15T03:55:06;4.03;;;3.30;;
3257;SDS011;1641;51.306;12.384;2022-10-15T03:57:32;4.20;;;3.70;;
3257;SDS011;1641;51.306;12.384;2022-10-15T03:59:57;4.22;;;3.83;;
3257;SDS011;1641;51.306;12.384;2022-10-15T04:02:23;4.05;;;3.70;;
3257;SDS011;1641;51.306;12.384;2022-10-15T04:04:52;3.40;;;3.10;;
3257;SDS011;1641;51.306;12.384;2022-10-15T04:07:18;4.70;;;3.45;;
3257;SDS011;1641;51.306;12.384;2022-10-15T04:09:44;3.75;;;3.45;;
3257;SDS011;1641;51.306;12.384;2022-10-15T04:12:10;3.42;;;3.13;;
3257;SDS011;1641;51.306;12.384;2022-10-15T04:14:35;3.92;;;3.53;;
3257;SDS011;1641;51.306;12.384;2022-10-15T04:17:01;4.63;;;3.72;;
3257;SDS011;1641;51.306;12.384;2022-10-15T04:19:26;5.10;;;3.75;;
3257;SDS011;1641;51.306;12.384;2022-10-15T04:21:51;5.30;;;4.05;;
3257;SDS011;1641;51.306;12.384;2022-10-15T04:24:16;4.43;;;3.53;;
3257;SDS011;1641;51.306;12.384;2022-10-15T04:26:42;12.80;;;3.92;;
3257;SDS011;1641;51.306;12.384;2022-10-15T04:29:07;3.80;;;3.45;;
3257;SDS011;1641;51.306;12.384;2022-10-15T04:31:32;3.95;;;3.60;;
3257;SDS011;1641;51.306;12.384;2022-10-15T04:33:58;8.05;;;4.30;;
3257;SDS011;1641;51.306;12.384;2022-10-15T04:36:23;4.15;;;3.30;;
3257;SDS011;1641;51.306;12.384;2022-10-15T04:38:49;6.22;;;3.53;;
3257;SDS011;1641;51.306;12.384;2022-10-15T04:41:18;4.03;;;3.63;;
3257;SDS011;1641;51.306;12.384;2022-10-15T04:43:43;8.55;;;3.75;;
3257;SDS011;1641;51.306;12.384;2022-10-15T04:46:08;7.65;;;4.03;;
3257;SDS011;1641;51.306;12.384;2022-10-15T04:48:34;7.82;;;4.32;;
3257;SDS011;1641;51.306;12.384;2022-10-15T04:51:02;5.10;;;3.55;;
3257;SDS011;1641;51.306;12.384;2022-10-15T04:53:29;4.35;;;4.00;;
3257;SDS011;1641;51.306;12.384;2022-10-15T04:55:59;4.05;;;3.65;;
3257;SDS011;1641;51.306;12.384;2022-10-15T04:58:29;6.80;;;3.70;;
3257;SDS011;1641;51.306;12.384;2022-10-15T05:00:58;3.83;;;3.53;;
3257;SDS011;1641;51.306;12.384;2022-10-15T05:03:28;4.80;;;3.67;;
3257;SDS011;1641;51.306;12.384;2022-10-15T05:05:58;4.10;;;3.70;;
3257;SDS011;1641;51.306;12.384;2022-10-15T05:08:28;4.38;;;3.75;;
3257;SDS011;1641;51.306;12.384;2022-10-15T05:10:55;4.10;;;3.75;;
3257;SDS011;1641;51.306;12.384;2022-10-15T05:13:24;3.88;;;3.35;;
3257;SDS011;1641;51.306;12.384;2022-10-15T05:15:49;4.95;;;4.22;;
3257;SDS011;1641;51.306;12.384;2022-10-15T05:18:15;6.75;;;3.83;;
3257;SDS011;1641;51.306;12.384;2022-10-15T05:20:40;4.43;;;4.00;;
3257;SDS011;1641;51.306;12.384;2022-10-15T05:23:05;3.60;;;3.30;;
3257;SDS011;1641;51.306;12.384;2022-10-15T05:25:34;6.90;;;3.95;;
3257;SDS011;1641;51.306;12.384;2022-10-15T05:27:59;7.95;;;3.70;;
3257;SDS011;1641;51.306;12.384;2022-10-15T05:30:24;5.13;;;3.63;;
3257;SDS011;1641;51.306;12.384;2022-10-15T05:32:50;3.80;;;3.50;;
3257;SDS011;1641;51.306;12.384;2022-10-15T05:35:17;5.32;;;3.58;;
3257;SDS011;1641;51.306;12.384;2022-10-15T05:37:42;4.15;;;3.33;;
3257;SDS011;1641;51.306;12.384;2022-10-15T05:40:10;4.20;;;3.78;;
3257;SDS011;1641;51.306;12.384;2022-10-15T05:42:36;5.45;;;3.22;;
3257;SDS011;1641;51.306;12.384;2022-10-15T05:45:01;5.30;;;3.65;;
3257;SDS011;1641;51.306;12.384;2022-10-15T05:47:33;4.90;;;3.22;;
3257;SDS011;1641;51.306;12.384;2022-10-15T05:50:11;4.70;;;3.53;;
3257;SDS011;1641;51.306;12.384;2022-10-15T05:52:36;3.17;;;2.63;;
3257;SDS011;1641;51.306;12.384;2022-10-15T05:55:02;3.67;;;2.75;;
3257;SDS011;1641;51.306;12.384;2022-10-15T05:57:27;10.25;;;8.00;;
3257;SDS011;1641;51.306;12.384;2022-10-15T05:59:55;8.80;;;6.95;;
3257;SDS011;1641;51.306;12.384;2022-10-15T06:02:21;5.32;;;4.13;;
3257;SDS011;1641;51.306;12.384;2022-10-15T06:04:46;5.05;;;3.47;;
3257;SDS011;1641;51.306;12.384;2022-10-15T06:07:12;3.50;;;3.20;;
3257;SDS011;1641;51.306;12.384;2022-10-15T06:09:38;3.47;;;3.17;;
3257;SDS011;1641;51.306;12.384;2022-10-15T06:12:03;3.70;;;2.83;;
3257;SDS011;1641;51.306;12.384;2022-10-15T06:14:28;4.60;;;3.35;;
3257;SDS011;1641;51.306;12.384;2022-10-15T06:16:54;6.55;;;2.95;;
3257;SDS011;1641;51.306;12.384;2022-10-15T06:19:22;3.35;;;2.95;;
3257;SDS011;1641;51.306;12.384;2022-10-15T06:21:47;5.53;;;3.28;;
3257;SDS011;1641;51.306;12.384;2022-10-15T06:24:12;4.32;;;3.38;;
3257;SDS011;1641;51.306;12.384;2022-10-15T06:26:38;3.97;;;2.92;;
3257;SDS011;1641;51.306;12.384;2022-10-15T06:29:06;4.05;;;3.25;;
3257;SDS011;1641;51.306;12.384;2022-10-15T06:31:31;4.57;;;4.10;;
3257;SDS011;1641;51.306;12.384;2022-10-15T06:33:57;7.72;;;3.80;;
3257;SDS011;1641;51.306;12.384;2022-10-15T06:36:22;3.40;;;3.10;;
3257;SDS011;1641;51.306;12.384;2022-10-15T06:38:52;6.00;;;3.90;;
3257;SDS011;1641;51.306;12.384;2022-10-15T06:41:36;3.70;;;3.30;;
3257;SDS011;1641;51.306;12.384;2022-10-15T06:44:01;4.78;;;3.17;;
3257;SDS011;1641;51.306;12.384;2022-10-15T06:46:26;4.90;;;3.25;;
3257;SDS011;1641;51.306;12.384;2022-10-15T06:48:52;3.75;;;3.22;;
3257;SDS011;1641;51.306;12.384;2022-10-15T06:51:18;3.88;;;2.60;;
3257;SDS011;1641;51.306;12.384;2022-10-15T06:53:43;4.88;;;2.83;;
3257;SDS011;1641;51.306;12.384;2022-10-15T06:56:09;6.35;;;3.40;;
3257;SDS011;1641;51.306;12.384;2022-10-15T06:58:34;4.38;;;2.80;;
3257;SDS011;1641;51.306;12.384;2022-10-15T07:01:03;4.47;;;3.13;;
3257;SDS011;1641;51.306;12.384;2022-10-15T07:03:30;3.08;;;2.80;;
3257;SDS011;1641;51.306;12.384;2022-10-15T07:05:55;5.82;;;2.95;;
3257;SDS011;1641;51.306;12.384;2022-10-15T07:08:25;5.30;;;3.10;;
3257;SDS011;1641;51.306;12.384;2022-10-15T07:10:51;6.95;;;3.17;;
3257;SDS011;1641;51.306;12.384;2022-10-15T07:13:16;4.57;;;2.90;;
3257;SDS011;1641;51.306;12.384;2022-10-15T07:15:41;3.20;;;2.90;;
3257;SDS011;1641;51.306;12.384;2022-10-15T07:18:08;3.90;;;3.50;;
3257;SDS011;1641;51.306;12.384;2022-10-15T07:20:33;4.78;;;3.38;;
3257;SDS011;1641;51.306;12.384;2022-10-15T07:23:00;4.38;;;3.03;;
3257;SDS011;1641;51.306;12.384;2022-10-15T07:25:26;3.42;;;3.13;;
3257;SDS011;1641;51.306;12.384;2022-10-15T07:27:57;8.25;;;2.60;;
3257;SDS011;1641;51.306;12.384;2022-10-15T07:32:57;5.00;;;2.70;;
3257;SDS011;1641;51.306;12.384;2022-10-15T07:35:26;4.28;;;3.20;;
3257;SDS011;1641;51.306;12.384;2022-10-15T07:37:52;11.35;;;3.47;;
3257;SDS011;1641;51.306;12.384;2022-10-15T07:40:17;9.75;;;7.80;;
3257;SDS011;1641;51.306;12.384;2022-10-15T07:42:52;8.70;;;6.05;;
3257;SDS011;1641;51.306;12.384;2022-10-15T07:45:25;5.53;;;4.05;;
3257;SDS011;1641;51.306;12.384;2022-10-15T07:47:54;4.68;;;2.83;;
3257;SDS011;1641;51.306;12.384;2022-10-15T07:50:19;7.20;;;4.38;;
3257;SDS011;1641;51.306;12.384;2022-10-15T07:52:45;3.05;;;2.75;;
3257;SDS011;1641;51.306;12.384;2022-10-15T07:55:10;4.45;;;3.20;;
3257;SDS011;1641;51.306;12.384;2022-10-15T07:57:36;4.07;;;2.92;;
3257;SDS011;1641;51.306;12.384;2022-10-15T08:00:03;3.90;;;2.58;;
3257;SDS011;1641;51.306;12.384;2022-10-15T08:02:32;2.78;;;2.47;;
3257;SDS011;1641;51.306;12.384;2022-10-15T08:04:58;4.03;;;2.30;;
3257;SDS011;1641;51.306;12.384;2022-10-15T08:07:23;5.55;;;3.58;;
3257;SDS011;1641;51.306;12.384;2022-10-15T08:09:51;4.63;;;3.42;;
3257;SDS011;1641;51.306;12.384;2022-10-15T08:12:17;8.23;;;4.20;;
3257;SDS011;1641;51.306;12.384;2022-10-15T08:14:42;4.40;;;2.55;;
3257;SDS011;1641;51.306;12.384;2022-10-15T08:17:08;2.00;;;1.80;;
3257;SDS011;1641;51.306;12.384;2022-10-15T08:19:37;2.83;;;2.00;;
3257;SDS011;1641;51.306;12.384;2022-10-15T08:22:03;3.08;;;2.78;;
3257;SDS011;1641;51.306;12.384;2022-10-15T08:24:28;2.88;;;2.17;;
3257;SDS011;1641;51.306;12.384;2022-10-15T08:26:55;3.20;;;2.22;;
3257;SDS011;1641;51.306;12.384;2022-10-15T08:29:22;4.13;;;2.42;;
3257;SDS011;1641;51.306;12.384;2022-10-15T08:31:48;2.90;;;1.80;;
3257;SDS011;1641;51.306;12.384;2022-10-15T08:34:14;3.38;;;1.75;;
3257;SDS011;1641;51.306;12.384;2022-10-15T08:36:40;2.90;;;2.25;;
3257;SDS011;1641;51.306;12.384;2022-10-15T08:39:06;2.75;;;1.85;;
3257;SDS011;1641;51.306;12.384;2022-10-15T08:41:37;4.72;;;3.30;;
3257;SDS011;1641;51.306;12.384;2022-10-15T08:44:05;3.15;;;2.88;;
3257;SDS011;1641;51.306;12.384;2022-10-15T08:46:41;4.68;;;2.75;;
3257;SDS011;1641;51.306;12.384;2022-10-15T08:49:19;4.78;;;2.72;;
3257;SDS011;1641;51.306;12.384;2022-10-15T08:51:52;4.28;;;2.22;;
3257;SDS011;1641;51.306;12.384;2022-10-15T08:54:26;5.05;;;3.38;;
3257;SDS011;1641;51.306;12.384;2022-10-15T08:57:01;5.78;;;3.85;;
3257;SDS011;1641;51.306;12.384;2022-10-15T09:02:26;2.35;;;1.80;;
3257;SDS011;1641;51.306;12.384;2022-10-15T09:05:02;2.50;;;1.63;;
3257;SDS011;1641;51.306;12.384;2022-10-15T09:07:51;6.97;;;4.80;;
3257;SDS011;1641;51.306;12.384;2022-10-15T09:16:08;1.95;;;1.67;;
3257;SDS011;1641;51.306;12.384;2022-10-15T09:18:38;1.88;;;1.33;;
3257;SDS011;1641;51.306;12.384;2022-10-15T09:21:08;4.68;;;2.42;;
3257;SDS011;1641;51.306;12.384;2022-10-15T09:23:35;7.65;;;4.07;;
3257;SDS011;1641;51.306;12.384;2022-10-15T09:31:53;4.32;;;2.88;;
3257;SDS011;1641;51.306;12.384;2022-10-15T09:34:29;3.15;;;1.83;;
3257;SDS011;1641;51.306;12.384;2022-10-15T09:37:04;10.27;;;5.35;;
3257;SDS011;1641;51.306;12.384;2022-10-15T09:39:45;1.58;;;1.48;;
3257;SDS011;1641;51.306;12.384;2022-10-15T09:42:36;2.67;;;1.95;;
3257;SDS011;1641;51.306;12.384;2022-10-15T09:45:04;3.10;;;1.20;;
3257;SDS011;1641;51.306;12.384;2022-10-15T09:47:34;1.75;;;1.63;;
3257;SDS011;1641;51.306;12.384;2022-10-15T09:50:00;3.28;;;1.35;;
3257;SDS011;1641;51.306;12.384;2022-10-15T09:52:34;1.60;;;1.33;;
3257;SDS011;1641;51.306;12.384;2022-10-15T10:01:07;3.15;;;1.83;;
3257;SDS011;1641;51.306;12.384;2022-10-15T10:03:42;1.83;;;1.45;;
3257;SDS011;1641;51.306;12.384;2022-10-15T10:06:08;2.63;;;1.40;;
3257;SDS011;1641;51.306;12.384;2022-10-15T10:11:14;3.13;;;1.50;;
3257;SDS011;1641;51.306;12.384;2022-10-15T10:13:44;1.65;;;1.55;;
3257;SDS011;1641;51.306;12.384;2022-10-15T10:16:15;1.73;;;1.42;;
3257;SDS011;1641;51.306;12.384;2022-10-15T10:18:42;1.85;;;1.42;;
3257;SDS011;1641;51.306;12.384;2022-10-15T10:21:22;0.82;;;0.82;;
3257;SDS011;1641;51.306;12.384;2022-10-15T10:23:50;4.65;;;2.10;;
3257;SDS011;1641;51.306;12.384;2022-10-15T10:26:16;2.70;;;2.13;;
3257;SDS011;1641;51.306;12.384;2022-10-15T10:28:43;1.20;;;1.10;;
3257;SDS011;1641;51.306;12.384;2022-10-15T10:31:14;2.72;;;1.45;;
3257;SDS011;1641;51.306;12.384;2022-10-15T10:33:44;2.08;;;1.52;;
3257;SDS011;1641;51.306;12.384;2022-10-15T10:36:25;2.10;;;1.02;;
3257;SDS011;1641;51.306;12.384;2022-10-15T10:39:00;1.17;;;1.00;;
3257;SDS011;1641;51.306;12.384;2022-10-15T10:45:17;1.58;;;1.48;;
3257;SDS011;1641;51.306;12.384;2022-10-15T10:47:45;1.35;;;1.25;;
3257;SDS011;1641;51.306;12.384;2022-10-15T10:50:31;1.85;;;1.30;;
3257;SDS011;1641;51.306;12.384;2022-10-15T10:53:09;2.15;;;1.70;;
3257;SDS011;1641;51.306;12.384;2022-10-15T10:55:43;3.85;;;1.85;;
3257;SDS011;1641;51.306;12.384;2022-10-15T10:58:11;4.68;;;3.33;;
3257;SDS011;1641;51.306;12.384;2022-10-15T11:00:45;2.15;;;1.67;;
3257;SDS011;1641;51.306;12.384;2022-10-15T11:03:22;2.10;;;1.20;;
3257;SDS011;1641;51.306;12.384;2022-10-15T11:12:38;1.27;;;1.02;;
3257;SDS011;1641;51.306;12.384;2022-10-15T11:15:18;1.23;;;1.13;;
3257;SDS011;1641;51.306;12.384;2022-10-15T11:26:12;7.70;;;2.08;;
3257;SDS011;1641;51.306;12.384;2022-10-15T11:28:54;1.20;;;0.77;;
3257;SDS011;1641;51.306;12.384;2022-10-15T11:31:35;2.10;;;0.93;;
3257;SDS011;1641;51.306;12.384;2022-10-15T11:34:29;1.00;;;0.75;;
3257;SDS011;1641;51.306;12.384;2022-10-15T11:40:04;0.90;;;0.90;;
3257;SDS011;1641;51.306;12.384;2022-10-15T11:43:30;1.67;;;1.00;;
3257;SDS011;1641;51.306;12.384;2022-10-15T11:45:59;1.75;;;1.05;;
3257;SDS011;1641;51.306;12.384;2022-10-15T11:48:45;1.77;;;1.17;;
3257;SDS011;1641;51.306;12.384;2022-10-15T11:51:23;1.42;;;1.33;;
3257;SDS011;1641;51.306;12.384;2022-10-15T11:54:26;1.67;;;1.10;;
3257;SDS011;1641;51.306;12.384;2022-10-15T11:57:14;2.78;;;1.40;;
3257;SDS011;1641;51.306;12.384;2022-10-15T11:59:50;1.63;;;1.00;;
3257;SDS011;1641;51.306;12.384;2022-10-15T12:05:04;1.25;;;1.10;;
3257;SDS011;1641;51.306;12.384;2022-10-15T12:07:48;2.97;;;0.83;;
3257;SDS011;1641;51.306;12.384;2022-10-15T12:21:02;4.68;;;1.30;;
3257;SDS011;1641;51.306;12.384;2022-10-15T12:25:58;0.98;;;0.60;;
3257;SDS011;1641;51.306;12.384;2022-10-15T12:28:25;2.00;;;0.80;;
3257;SDS011;1641;51.306;12.384;2022-10-15T12:30:56;1.10;;;1.00;;
3257;SDS011;1641;51.306;12.384;2022-10-15T12:33:36;1.10;;;1.00;;
3257;SDS011;1641;51.306;12.384;2022-10-15T12:38:50;1.23;;;1.10;;
3257;SDS011;1641;51.306;12.384;2022-10-15T12:41:22;1.88;;;1.33;;
3257;SDS011;1641;51.306;12.384;2022-10-15T12:44:03;1.55;;;0.93;;
3257;SDS011;1641;51.306;12.384;2022-10-15T12:46:38;1.52;;;1.00;;
3257;SDS011;1641;51.306;12.384;2022-10-15T12:49:43;2.17;;;1.00;;
3257;SDS011;1641;51.306;12.384;2022-10-15T12:54:38;1.83;;;1.25;;
3257;SDS011;1641;51.306;12.384;2022-10-15T12:58:28;1.85;;;1.48;;
3257;SDS011;1641;51.306;12.384;2022-10-15T13:02:48;1.88;;;1.10;;
3257;SDS011;1641;51.306;12.384;2022-10-15T13:05:28;1.33;;;1.23;;
3257;SDS011;1641;51.306;12.384;2022-10-15T13:08:05;2.22;;;1.00;;
3257;SDS011;1641;51.306;12.384;2022-10-15T13:10:38;1.02;;;0.90;;
3257;SDS011;1641;51.306;12.384;2022-10-15T13:13:17;1.15;;;0.90;;
3257;SDS011;1641;51.306;12.384;2022-10-15T13:15:58;0.98;;;0.90;;
3257;SDS011;1641;51.306;12.384;2022-10-15T13:18:25;0.82;;;0.82;;
3257;SDS011;1641;51.306;12.384;2022-10-15T13:20:53;2.00;;;1.17;;
3257;SDS011;1641;51.306;12.384;2022-10-15T13:23:22;2.08;;;1.23;;
3257;SDS011;1641;51.306;12.384;2022-10-15T13:25:50;1.63;;;1.20;;
3257;SDS011;1641;51.306;12.384;2022-10-15T13:28:29;1.60;;;1.50;;
3257;SDS011;1641;51.306;12.384;2022-10-15T13:30:55;1.40;;;1.25;;
3257;SDS011;1641;51.306;12.384;2022-10-15T13:33:21;1.27;;;0.90;;
3257;SDS011;1641;51.306;12.384;2022-10-15T13:35:46;10.90;;;1.00;;
3257;SDS011;1641;51.306;12.384;2022-10-15T13:38:19;4.72;;;0.90;;
3257;SDS011;1641;51.306;12.384;2022-10-15T13:40:47;1.02;;;0.80;;
3257;SDS011;1641;51.306;12.384;2022-10-15T13:43:15;1.67;;;0.73;;
3257;SDS011;1641;51.306;12.384;2022-10-15T13:45:46;4.80;;;0.80;;
3257;SDS011;1641;51.306;12.384;2022-10-15T13:48:16;0.77;;;0.77;;
3257;SDS011;1641;51.306;12.384;2022-10-15T13:50:46;0.93;;;0.82;;
3257;SDS011;1641;51.306;12.384;2022-10-15T13:53:28;0.73;;;0.70;;
3257;SDS011;1641;51.306;12.384;2022-10-15T13:56:13;0.55;;;0.50;;
3257;SDS011;1641;51.306;12.384;2022-10-15T13:58:50;0.50;;;0.50;;
3257;SDS011;1641;51.306;12.384;2022-10-15T14:01:17;0.47;;;0.47;;
3257;SDS011;1641;51.306;12.384;2022-10-15T14:03:46;3.17;;;1.13;;
3257;SDS011;1641;51.306;12.384;2022-10-15T14:06:22;2.25;;;0.60;;
3257;SDS011;1641;51.306;12.384;2022-10-15T14:08:50;1.15;;;0.95;;
3257;SDS011;1641;51.306;12.384;2022-10-15T14:11:17;2.92;;;0.63;;
3257;SDS011;1641;51.306;12.384;2022-10-15T14:13:43;0.85;;;0.65;;
3257;SDS011;1641;51.306;12.384;2022-10-15T14:16:20;2.58;;;1.00;;
3257;SDS011;1641;51.306;12.384;2022-10-15T14:18:49;1.02;;;0.93;;
3257;SDS011;1641;51.306;12.384;2022-10-15T14:21:18;1.20;;;1.10;;
3257;SDS011;1641;51.306;12.384;2022-10-15T14:23:46;1.95;;;1.58;;
3257;SDS011;1641;51.306;12.384;2022-10-15T14:26:13;1.58;;;1.48;;
3257;SDS011;1641;51.306;12.384;2022-10-15T14:28:40;1.30;;;1.20;;
3257;SDS011;1641;51.306;12.384;2022-10-15T14:31:07;1.73;;;1.40;;
3257;SDS011;1641;51.306;12.384;2022-10-15T14:38:30;1.38;;;1.27;;
3257;SDS011;1641;51.306;12.384;2022-10-15T14:41:04;3.50;;;1.52;;
3257;SDS011;1641;51.306;12.384;2022-10-15T14:43:40;1.33;;;0.70;;
3257;SDS011;1641;51.306;12.384;2022-10-15T14:46:06;1.33;;;0.70;;
3257;SDS011;1641;51.306;12.384;2022-10-15T14:48:39;1.75;;;1.25;;
3257;SDS011;1641;51.306;12.384;2022-10-15T14:51:11;1.90;;;1.42;;
3257;SDS011;1641;51.306;12.384;2022-10-15T14:53:43;0.95;;;0.80;;
3257;SDS011;1641;51.306;12.384;2022-10-15T14:56:13;6.35;;;1.00;;
3257;SDS011;1641;51.306;12.384;2022-10-15T14:58:46;3.10;;;0.65;;
3257;SDS011;1641;51.306;12.384;2022-10-15T15:01:16;1.33;;;1.00;;
3257;SDS011;1641;51.306;12.384;2022-10-15T15:03:44;3.42;;;0.77;;
3257;SDS011;1641;51.306;12.384;2022-10-15T15:06:13;2.47;;;0.65;;
3257;SDS011;1641;51.306;12.384;2022-10-15T15:08:38;2.25;;;0.80;;
3257;SDS011;1641;51.306;12.384;2022-10-15T15:11:04;6.78;;;1.30;;
3257;SDS011;1641;51.306;12.384;2022-10-15T15:13:38;5.22;;;1.40;;
3257;SDS011;1641;51.306;12.384;2022-10-15T15:16:05;2.35;;;1.00;;
3257;SDS011;1641;51.306;12.384;2022-10-15T15:18:30;1.48;;;1.02;;
3257;SDS011;1641;51.306;12.384;2022-10-15T15:20:57;1.85;;;1.45;;
3257;SDS011;1641;51.306;12.384;2022-10-15T15:23:26;0.70;;;0.68;;
3257;SDS011;1641;51.306;12.384;2022-10-15T15:25:53;1.38;;;0.80;;
3257;SDS011;1641;51.306;12.384;2022-10-15T15:28:23;9.10;;;1.90;;
3257;SDS011;1641;51.306;12.384;2022-10-15T15:30:57;3.55;;;1.05;;
3257;SDS011;1641;51.306;12.384;2022-10-15T15:33:27;1.52;;;0.85;;
3257;SDS011;1641;51.306;12.384;2022-10-15T15:38:25;1.92;;;0.60;;
3257;SDS011;1641;51.306;12.384;2022-10-15T15:41:02;0.90;;;0.80;;
3257;SDS011;1641;51.306;12.384;2022-10-15T15:43:38;1.73;;;1.20;;
3257;SDS011;1641;51.306;12.384;2022-10-15T15:46:06;2.70;;;0.73;;
3257;SDS011;1641;51.306;12.384;2022-10-15T15:48:35;0.93;;;0.80;;
3257;SDS011;1641;51.306;12.384;2022-10-15T15:51:02;1.20;;;0.80;;
3257;SDS011;1641;51.306;12.384;2022-10-15T15:53:29;1.38;;;0.80;;
3257;SDS011;1641;51.306;12.384;2022-10-15T15:55:55;5.32;;;0.90;;
3257;SDS011;1641;51.306;12.384;2022-10-15T15:58:20;2.92;;;0.90;;
3257;SDS011;1641;51.306;12.384;2022-10-15T16:00:45;1.98;;;0.80;;
3257;SDS011;1641;51.306;12.384;2022-10-15T16:03:16;4.97;;;1.17;;
3257;SDS011;1641;51.306;12.384;2022-10-15T16:05:41;1.55;;;0.80;;
3257;SDS011;1641;51.306;12.384;2022-10-15T16:08:07;0.73;;;0.73;;
3257;SDS011;1641;51.306;12.384;2022-10-15T16:10:34;2.17;;;0.70;;
3257;SDS011;1641;51.306;12.384;2022-10-15T16:13:00;1.63;;;1.10;;
3257;SDS011;1641;51.306;12.384;2022-10-15T16:15:29;1.50;;;1.38;;
3257;SDS011;1641;51.306;12.384;2022-10-15T16:17:54;2.45;;;1.77;;
3257;SDS011;1641;51.306;12.384;2022-10-15T16:20:20;2.20;;;1.33;;
3257;SDS011;1641;51.306;12.384;2022-10-15T16:23:00;1.60;;;1.48;;
3257;SDS011;1641;51.306;12.384;2022-10-15T16:25:26;1.88;;;1.40;;
3257;SDS011;1641;51.306;12.384;2022-10-15T16:27:51;3.00;;;2.17;;
3257;SDS011;1641;51.306;12.384;2022-10-15T16:30:17;2.95;;;2.50;;
3257;SDS011;1641;51.306;12.384;2022-10-15T16:32:43;2.90;;;2.58;;
3257;SDS011;1641;51.306;12.384;2022-10-15T16:35:12;3.42;;;2.95;;
3257;SDS011;1641;51.306;12.384;2022-10-15T16:37:37;3.55;;;3.10;;
3257;SDS011;1641;51.306;12.384;2022-10-15T16:40:03;2.80;;;2.30;;
3257;SDS011;1641;51.306;12.384;2022-10-15T16:42:29;3.95;;;3.10;;
3257;SDS011;1641;51.306;12.384;2022-10-15T16:44:54;2.55;;;2.10;;
3257;SDS011;1641;51.306;12.384;2022-10-15T16:47:19;2.83;;;2.13;;
3257;SDS011;1641;51.306;12.384;2022-10-15T16:49:47;7.40;;;3.95;;
3257;SDS011;1641;51.306;12.384;2022-10-15T16:52:13;6.00;;;3.10;;
3257;SDS011;1641;51.306;12.384;2022-10-15T16:54:38;6.97;;;4.47;;
3257;SDS011;1641;51.306;12.384;2022-10-15T16:57:03;3.17;;;2.42;;
3257;SDS011;1641;51.306;12.384;2022-10-15T16:59:29;1.75;;;1.65;;
3257;SDS011;1641;51.306;12.384;2022-10-15T17:01:55;3.80;;;1.63;;